Weather at Alderney Airport

Public forecast

Using degrees Celsius for public forecast. Weather courtesy of forecast.io.

Current aviation weather report (METAR) for Alderney Airport

Report is more than 2 hours old.

Retrieved 2021/10/23 18:20 UTC (2 hours ago):

EGJA 231820Z 17012KT 9999 BKN037 13/05 Q1024

Closest aviation forecast (TAF) to Alderney Airport

Forecast is more than 12 hours old.

Closest forecast is Bournemouth Airport, 66.0 nm (122.3 km) NNE. Retrieved 2021/10/07 18:57 UTC (16 days ago):

TAF TAF EGHH 071752Z 0718/0823 CNL